Time;durP1;ratioP1;P1;durP2;ratioP2;P2;SDS_P1;SDS_P2;PMS_P1;PMS_P2;Temp;Humidity;BMP_temperature;BMP_pressure;BME280_temperature;BME280_humidity;BME280_pressure;Samples;Min_cycle;Max_cycle;Signal;HPM_P1;HPM_P2
2022/01/02 00:00:47;;;;;;;9.60;6.50;;;4.80;85.60;;;3.55;81.03;96869.13;4036228;34;20459;-84
2022/01/02 00:03:35;;;;;;;10.02;6.47;;;4.80;85.70;;;3.55;81.50;96871.84;3999069;34;20345;-84
2022/01/02 00:06:25;;;;;;;9.98;6.90;;;4.80;85.70;;;3.56;81.56;96876.22;3999077;34;20057;-84
2022/01/02 00:09:10;;;;;;;9.07;6.65;;;4.80;85.80;;;3.56;81.30;96881.63;4018554;34;20558;-84
2022/01/02 00:12:08;;;;;;;9.98;6.93;;;4.80;85.70;;;3.56;81.41;96878.94;3983926;34;20707;-84
2022/01/02 00:14:55;;;;;;;10.48;6.65;;;4.80;85.70;;;3.56;80.93;96889.75;4003576;34;20639;-84
2022/01/02 00:17:40;;;;;;;10.15;6.90;;;4.80;85.60;;;3.57;81.23;96893.31;4001836;34;20008;-84
2022/01/02 00:20:33;;;;;;;10.50;7.10;;;4.80;85.50;;;3.57;81.24;96902.25;3990385;34;20390;-84
2022/01/02 00:23:21;;;;;;;10.05;6.53;;;4.80;85.60;;;3.57;81.71;96896.84;3994782;34;20408;-84
2022/01/02 00:26:06;;;;;;;9.70;6.47;;;4.80;85.60;;;3.56;81.45;96897.88;3990287;34;20402;-84
2022/01/02 00:28:51;;;;;;;9.10;6.35;;;4.80;85.80;;;3.57;81.64;96910.38;3988223;34;20323;-84
2022/01/02 00:31:36;;;;;;;10.43;7.28;;;4.80;85.90;;;3.57;81.46;96902.25;3986820;34;20358;-84
2022/01/02 00:34:22;;;;;;;9.30;6.25;;;4.80;85.90;;;3.57;81.11;96915.78;3986308;34;20031;-84
2022/01/02 00:37:07;;;;;;;11.00;6.75;;;4.80;85.80;;;3.58;81.48;96913.94;3986539;34;20716;-84
2022/01/02 00:39:52;;;;;;;9.20;6.45;;;4.90;85.70;;;3.57;81.30;96904.97;3988900;34;20315;-84
2022/01/02 00:42:42;;;;;;;8.65;6.15;;;4.90;85.70;;;3.58;81.42;96911.22;3989144;34;20183;-84
2022/01/02 00:45:28;;;;;;;9.57;6.63;;;4.90;85.70;;;3.59;81.47;96904.78;4006881;34;20523;-84
2022/01/02 00:48:27;;;;;;;10.80;6.85;;;4.90;85.80;;;3.58;81.39;96903.94;3988278;34;20108;-83
2022/01/02 00:51:31;;;;;;;10.93;6.28;;;4.90;85.80;;;3.57;81.40;96904.97;4008403;34;20328;-84
2022/01/02 00:54:17;;;;;;;11.10;6.93;;;4.90;85.80;;;3.58;81.13;96901.22;4024510;29;20306;-84
2022/01/02 00:57:09;;;;;;;10.85;6.40;;;4.90;85.80;;;3.58;81.14;96903.94;4035573;34;20065;-85
2022/01/02 01:00:12;;;;;;;11.30;6.57;;;4.90;85.70;;;3.58;81.63;96901.22;3999305;34;20351;-84
2022/01/02 01:03:08;;;;;;;9.68;6.35;;;4.80;85.60;;;3.58;81.32;96901.22;4020562;34;20004;-84
2022/01/02 01:05:55;;;;;;;10.27;6.53;;;4.90;85.70;;;3.60;81.32;96906.44;3999053;34;20406;-84
2022/01/02 01:08:40;;;;;;;10.30;6.45;;;4.90;85.70;;;3.59;81.18;96910.19;3959178;34;20092;-84
2022/01/02 01:11:27;;;;;;;9.00;6.07;;;4.90;85.70;;;3.59;81.37;96908.31;3981355;34;20056;-84
2022/01/02 01:14:11;;;;;;;;;;;4.90;85.60;;;3.59;81.43;96907.47;3981344;34;20596;-84
2022/01/02 01:16:57;;;;;;;9.52;5.75;;;4.90;85.60;;;3.60;81.59;96895.63;3998110;34;20099;-84
2022/01/02 01:19:43;;;;;;;10.38;6.20;;;4.90;85.70;;;3.60;81.73;96901.03;3980929;34;20723;-84
2022/01/02 01:22:29;;;;;;;8.95;5.82;;;4.90;86.00;;;3.60;81.57;96909.16;3981772;34;20017;-84
2022/01/02 01:25:17;;;;;;;7.60;5.53;;;4.90;86.00;;;3.59;81.44;96902.88;3984684;34;20348;-85
2022/01/02 01:28:02;;;;;;;8.60;6.07;;;4.90;86.00;;;3.59;81.41;96913.72;3969288;34;20020;-86
2022/01/02 01:30:49;;;;;;;9.23;5.90;;;4.90;85.90;;;3.60;81.04;96904.56;4003294;34;20084;-86
2022/01/02 01:33:35;;;;;;;9.95;6.50;;;4.90;85.70;;;3.60;81.25;96901.84;3985761;34;20011;-84
2022/01/02 01:36:20;;;;;;;7.85;5.75;;;4.90;85.70;;;3.60;81.48;96901.84;4005692;34;20033;-84
2022/01/02 01:39:06;;;;;;;7.85;5.45;;;4.90;85.70;;;3.60;81.10;96904.56;3976389;34;20379;-84
2022/01/02 01:41:53;;;;;;;9.60;6.00;;;4.90;85.80;;;3.60;81.51;96904.56;3961021;34;20289;-84
2022/01/02 01:47:26;;;;;;;8.70;5.40;;;4.90;85.90;;;3.61;81.35;96900.81;4019113;34;20529;-84
2022/01/02 01:50:11;;;;;;;11.55;5.75;;;4.90;85.90;;;3.61;81.63;96900.00;4005866;34;20307;-85
2022/01/02 01:52:56;;;;;;;9.23;6.40;;;4.90;85.90;;;3.61;81.50;96903.50;4002012;34;20233;-85
2022/01/02 01:55:43;;;;;;;7.88;5.60;;;4.90;85.80;;;3.62;81.56;96907.03;3975510;34;20009;-84
2022/01/02 01:58:28;;;;;;;7.78;6.22;;;4.90;85.80;;;3.61;81.20;96908.09;3976895;34;20078;-85
2022/01/02 02:01:13;;;;;;;8.75;5.63;;;4.90;85.80;;;3.62;81.06;96896.22;4021304;34;20078;-85
2022/01/02 02:04:07;;;;;;;11.57;6.38;;;4.90;85.80;;;3.61;81.43;96908.94;4019163;34;20013;-84
2022/01/02 02:06:54;;;;;;;7.70;5.32;;;4.90;85.90;;;3.63;81.32;96914.97;4035178;34;20046;-85
2022/01/02 02:12:47;;;;;;;7.95;5.40;;;4.90;86.00;;;3.61;81.55;96917.06;3998930;34;20336;-84
2022/01/02 02:15:32;;;;;;;8.27;5.63;;;4.90;85.70;;;3.62;81.43;96921.44;4009751;34;20331;-84
2022/01/02 02:18:18;;;;;;;11.60;5.85;;;4.90;85.80;;;3.63;81.43;96930.38;3956079;34;20290;-84
2022/01/02 02:21:03;;;;;;;7.18;5.25;;;4.90;85.80;;;3.63;81.53;96908.72;3992361;34;20033;-84
2022/01/02 02:23:50;;;;;;;7.93;5.60;;;4.90;85.70;;;3.62;81.25;96916.00;3957097;34;20078;-84
2022/01/02 02:26:37;;;;;;;7.20;5.15;;;4.90;85.70;;;3.62;81.34;96921.44;3991527;34;20044;-84
2022/01/02 02:29:22;;;;;;;8.57;5.43;;;4.90;85.60;;;3.63;81.21;96920.38;3972798;34;20299;-84
2022/01/02 02:32:07;;;;;;;7.40;5.35;;;4.90;85.60;;;3.63;81.08;96922.25;3989668;34;20761;-84
2022/01/02 02:34:52;;;;;;;8.05;5.80;;;4.90;85.60;;;3.63;81.12;96924.97;3988852;34;20306;-84
2022/01/02 02:37:43;;;;;;;8.60;5.68;;;4.90;85.80;;;3.62;81.14;96924.13;3971690;34;20339;-84
2022/01/02 02:40:30;;;;;;;8.93;5.65;;;4.90;85.70;;;3.63;81.37;96933.94;3954707;34;20350;-84
2022/01/02 02:43:35;;;;;;;7.72;5.28;;;4.90;85.90;;;3.64;81.55;96932.88;3971967;34;20329;-84
2022/01/02 02:49:30;;;;;;;7.10;5.20;;;4.90;85.80;;;3.65;81.52;96931.00;4028351;34;20016;-84
2022/01/02 02:52:42;;;;;;;6.68;5.18;;;4.90;85.90;;;3.64;81.20;96934.75;4035812;34;20003;-85
2022/01/02 02:55:26;;;;;;;7.45;5.15;;;4.90;85.80;;;3.64;81.49;96927.47;4012020;34;20290;-84
2022/01/02 03:01:18;;;;;;;7.55;5.28;;;4.90;85.80;;;3.64;81.14;96922.06;3983748;34;20041;-84
2022/01/02 03:04:03;;;;;;;8.32;5.45;;;4.90;85.80;;;3.64;81.31;96924.75;4021035;34;20017;-84
2022/01/02 03:06:48;;;;;;;8.02;5.00;;;4.90;85.80;;;3.64;81.22;96922.06;4021271;34;20016;-85
2022/01/02 03:12:19;;;;;;;8.45;5.32;;;4.90;85.70;;;3.65;81.21;96929.13;4014478;34;20417;-84
2022/01/02 03:15:08;;;;;;;8.20;5.32;;;4.90;85.70;;;3.65;81.56;96923.72;4018978;34;20363;-84
2022/01/02 03:17:52;;;;;;;7.72;5.38;;;4.90;85.70;;;3.66;81.29;96924.53;3993800;34;20422;-84
2022/01/02 03:20:37;;;;;;;7.18;4.93;;;4.90;85.70;;;3.65;81.09;96934.56;4011430;34;20523;-84
2022/01/02 03:23:22;;;;;;;7.72;5.18;;;4.90;85.70;;;3.66;81.17;96940.78;3975388;34;20053;-84
2022/01/02 03:26:07;;;;;;;8.95;5.28;;;4.90;85.80;;;3.66;81.56;96940.78;4010995;34;20150;-84
2022/01/02 03:28:53;;;;;;;7.47;5.07;;;4.90;85.80;;;3.66;81.44;96936.22;4011029;34;20026;-84
2022/01/02 03:31:38;;;;;;;7.47;5.20;;;4.90;85.70;;;3.65;81.06;96937.25;3974569;34;20356;-85
2022/01/02 03:34:23;;;;;;;7.03;5.28;;;5.00;85.70;;;3.67;81.31;96931.63;3956359;34;20117;-84
2022/01/02 03:37:09;;;;;;;8.27;5.70;;;4.90;85.70;;;3.66;81.37;96941.63;3940200;34;20341;-84
2022/01/02 03:39:57;;;;;;;8.30;5.70;;;4.90;85.80;;;3.67;81.37;96937.03;3940076;34;20040;-84
2022/01/02 03:42:42;;;;;;;7.53;5.05;;;4.90;85.90;;;3.68;81.29;96936.00;3939658;34;20048;-84
2022/01/02 03:45:28;;;;;;;6.95;4.65;;;4.90;85.90;;;3.67;81.71;96927.06;3932630;34;20312;-84
2022/01/02 03:48:13;;;;;;;7.40;5.10;;;4.90;85.80;;;3.67;81.73;96926.22;3963037;34;20610;-84
2022/01/02 03:50:58;;;;;;;7.22;4.38;;;4.90;85.70;;;3.66;81.10;96928.09;3980459;34;20515;-84
2022/01/02 03:53:43;;;;;;;6.80;5.00;;;4.90;85.80;;;3.66;81.26;96928.09;3965328;34;20375;-84
2022/01/02 03:56:28;;;;;;;7.60;4.88;;;4.90;85.90;;;3.67;81.47;96943.31;3964247;34;20506;-84
2022/01/02 03:59:15;;;;;;;6.88;4.80;;;4.90;85.80;;;3.67;81.53;96943.31;3982457;34;20399;-85
2022/01/02 04:02:00;;;;;;;8.48;5.45;;;4.90;85.90;;;3.67;81.11;96939.75;3941576;34;20302;-85
2022/01/02 04:04:46;;;;;;;6.95;4.85;;;4.90;85.70;;;3.68;81.49;96949.53;3991239;34;20013;-84
2022/01/02 04:07:31;;;;;;;7.47;4.97;;;4.90;85.70;;;3.67;81.34;96948.72;3990313;34;20632;-84
2022/01/02 04:10:17;;;;;;;8.23;5.28;;;5.00;85.80;;;3.68;81.10;96952.25;3989635;34;20696;-84
2022/01/02 04:13:02;;;;;;;7.40;5.15;;;4.90;85.80;;;3.67;81.45;96956.84;3989622;34;20017;-84
2022/01/02 04:15:47;;;;;;;8.40;5.43;;;5.00;85.80;;;3.68;81.40;96963.91;3989131;34;20477;-84
2022/01/02 04:18:32;;;;;;;8.23;5.57;;;5.00;85.80;;;3.68;81.31;96961.19;3972144;34;20096;-83
2022/01/02 04:21:17;;;;;;;7.55;5.60;;;5.00;85.70;;;3.69;81.40;96964.75;3997962;34;20028;-84
2022/01/02 04:24:02;;;;;;;8.15;5.10;;;5.00;85.80;;;3.69;81.36;96973.69;3979476;34;20054;-84
2022/01/02 04:26:47;;;;;;;8.57;5.53;;;5.00;85.70;;;3.68;81.34;96966.59;3962942;34;20626;-84
2022/01/02 04:29:32;;;;;;;8.40;5.50;;;5.00;85.90;;;3.68;81.17;96966.59;3964608;34;20011;-84
2022/01/02 04:32:18;;;;;;;8.15;5.57;;;5.00;85.70;;;3.69;81.46;96972.88;3963279;34;20048;-84
2022/01/02 04:35:04;;;;;;;8.23;5.50;;;5.00;85.80;;;3.68;81.33;96982.84;3979642;34;20012;-85
2022/01/02 04:37:49;;;;;;;8.88;5.65;;;5.00;85.80;;;3.69;81.52;96979.13;3939835;35;20022;-84
2022/01/02 04:40:35;;;;;;;8.35;5.20;;;5.00;85.80;;;3.69;81.63;96987.22;3992556;34;20275;-84
2022/01/02 04:43:23;;;;;;;9.00;5.43;;;5.00;85.80;;;3.69;81.15;96981.81;3994707;34;20359;-84
2022/01/02 04:46:09;;;;;;;7.55;5.55;;;5.00;85.70;;;3.69;81.02;96989.94;3992232;35;20053;-84
2022/01/02 04:48:54;;;;;;;8.57;5.00;;;5.00;85.70;;;3.69;81.34;96992.66;3992819;34;20308;-84
2022/01/02 04:51:41;;;;;;;7.15;4.97;;;5.00;85.80;;;3.69;81.42;96979.13;3993257;34;20017;-84
2022/01/02 04:54:26;;;;;;;7.15;4.63;;;5.00;85.90;;;3.70;81.36;96985.38;3989103;34;20013;-84
2022/01/02 04:57:11;;;;;;;8.43;5.05;;;5.00;85.90;;;3.70;81.47;96982.66;3989460;34;20681;-84
2022/01/02 04:59:57;;;;;;;9.68;5.53;;;5.00;85.90;;;3.71;81.69;96988.91;3971407;35;20407;-84
2022/01/02 05:02:41;;;;;;;7.30;5.00;;;5.00;85.80;;;3.71;81.40;96991.59;3998130;34;20395;-85
2022/01/02 05:05:26;;;;;;;6.25;4.70;;;5.00;85.80;;;3.71;81.42;96986.19;3981472;34;20310;-85
2022/01/02 05:08:11;;;;;;;8.13;5.18;;;5.00;85.70;;;3.71;81.07;96987.03;3964080;34;20008;-85
2022/01/02 05:10:57;;;;;;;8.40;5.80;;;5.00;85.80;;;3.71;81.61;96992.47;4017636;34;20346;-85
2022/01/02 05:13:43;;;;;;;8.77;5.43;;;5.00;85.80;;;3.71;81.17;96992.47;4017150;34;20296;-84
2022/01/02 05:16:28;;;;;;;7.80;5.45;;;5.00;85.70;;;3.71;81.19;96997.88;3998659;34;20658;-85
2022/01/02 05:19:13;;;;;;;8.95;5.20;;;5.00;85.90;;;3.71;81.53;96991.59;4016995;34;20735;-84
2022/01/02 05:21:58;;;;;;;7.20;4.85;;;5.00;86.00;;;3.72;81.63;96998.69;3998751;34;20307;-84
2022/01/02 05:24:43;;;;;;;8.10;5.63;;;5.00;85.90;;;3.72;81.44;96998.69;4016475;34;20340;-85
2022/01/02 05:27:28;;;;;;;8.07;5.35;;;5.00;85.90;;;3.72;81.42;97004.97;4017245;34;20644;-84
2022/01/02 05:30:13;;;;;;;8.10;5.55;;;5.00;85.80;;;3.72;81.70;97010.38;4015408;34;20706;-84
2022/01/02 05:32:58;;;;;;;7.43;5.30;;;5.00;85.90;;;3.72;81.46;97004.13;3978884;34;20367;-84
2022/01/02 05:35:43;;;;;;;7.00;5.35;;;5.00;85.90;;;3.71;81.59;96994.31;4010288;34;20316;-84
2022/01/02 05:38:28;;;;;;;6.78;5.07;;;5.00;85.90;;;3.72;81.27;97004.13;4008147;34;20733;-85
2022/01/02 05:41:13;;;;;;;6.20;4.47;;;5.00;85.90;;;3.73;81.67;97014.75;4008389;34;20311;-85
2022/01/02 05:43:58;;;;;;;9.80;5.38;;;5.00;85.90;;;3.74;81.42;97018.28;3960233;34;20356;-84
2022/01/02 05:46:44;;;;;;;8.00;5.45;;;5.00;86.00;;;3.73;81.46;97024.75;3941981;34;20009;-84
2022/01/02 05:49:29;;;;;;;8.63;5.50;;;5.00;85.90;;;3.73;81.34;97016.63;3942262;34;20313;-84
2022/01/02 05:52:14;;;;;;;7.20;5.25;;;5.00;85.90;;;3.73;81.54;97022.03;3942105;34;20277;-84
2022/01/02 05:54:59;;;;;;;7.88;5.05;;;5.00;86.00;;;3.73;81.97;97013.91;3944077;34;20056;-84
2022/01/02 05:57:44;;;;;;;7.85;5.15;;;5.00;85.90;;;3.73;81.35;97013.91;3944473;34;20074;-84
2022/01/02 06:00:29;;;;;;;7.90;4.93;;;5.00;85.80;;;3.73;81.46;97011.19;3943861;34;19998;-84
2022/01/02 06:03:19;;;;;;;8.02;5.43;;;5.00;85.80;;;3.73;81.17;97016.63;3957087;34;20536;-84
2022/01/02 06:06:05;;;;;;;8.48;5.57;;;5.00;85.70;;;3.73;81.24;97016.63;3980857;34;20318;-85
2022/01/02 06:08:50;;;;;;;7.85;5.45;;;5.00;85.70;;;3.72;81.13;97023.06;3988856;34;20759;-85
2022/01/02 06:11:35;;;;;;;7.80;5.15;;;5.00;85.80;;;3.73;81.40;97022.03;3992003;34;20001;-85
2022/01/02 06:14:20;;;;;;;7.22;5.00;;;5.00;85.70;;;3.73;81.18;97025.59;3983742;34;20310;-85
2022/01/02 06:17:05;;;;;;;7.80;5.10;;;5.00;85.80;;;3.74;81.45;97034.53;3983508;34;20330;-86
2022/01/02 06:19:50;;;;;;;7.25;5.25;;;5.00;85.90;;;3.74;81.23;97042.66;3984484;34;20312;-85
2022/01/02 06:22:35;;;;;;;6.88;5.05;;;5.00;85.80;;;3.74;81.26;97045.38;3968881;34;20000;-85
2022/01/02 06:25:22;;;;;;;8.27;5.55;;;5.00;85.80;;;3.74;81.25;97050.78;3986898;34;20398;-85
2022/01/02 06:28:07;;;;;;;9.93;6.25;;;5.00;85.80;;;3.73;81.65;97047.25;3994693;34;20298;-85
2022/01/02 06:30:52;;;;;;;8.48;5.55;;;5.00;85.80;;;3.74;81.64;97056.19;3921628;34;20290;-84
2022/01/02 06:33:37;;;;;;;8.05;5.30;;;5.00;85.70;;;3.74;81.62;97050.78;3951336;34;20352;-85
2022/01/02 06:36:22;;;;;;;8.30;5.20;;;5.00;85.80;;;3.73;81.10;97059.94;3951301;34;20053;-84
2022/01/02 06:39:07;;;;;;;9.10;5.97;;;5.00;85.80;;;3.75;81.66;97057.88;3953866;34;20005;-85
2022/01/02 06:41:52;;;;;;;9.32;5.60;;;5.00;85.80;;;3.75;81.54;97057.88;3938622;34;20081;-84
2022/01/02 06:44:38;;;;;;;7.95;5.13;;;5.00;85.80;;;3.76;81.33;97059.53;3949984;34;20519;-84
2022/01/02 06:47:23;;;;;;;9.27;5.40;;;5.00;85.70;;;3.75;81.68;97060.56;3954019;34;20591;-84
2022/01/02 06:50:11;;;;;;;9.63;6.28;;;5.00;85.90;;;3.75;81.30;97063.28;3954909;34;20460;-85
2022/01/02 06:52:57;;;;;;;10.20;5.40;;;5.00;85.80;;;3.75;81.58;97064.09;3957886;34;20296;-86
2022/01/02 06:55:42;;;;;;;9.40;6.40;;;5.00;85.90;;;3.75;81.63;97064.09;3971986;30;20676;-86
2022/01/02 06:58:27;;;;;;;7.53;5.47;;;5.00;85.80;;;3.77;81.21;97066.63;3975936;34;20753;-85
2022/01/02 07:01:12;;;;;;;7.78;5.43;;;5.10;85.90;;;3.77;81.62;97074.75;3998143;34;20331;-85
2022/01/02 07:03:57;;;;;;;9.35;6.38;;;5.00;85.70;;;3.77;81.30;97072.88;3985961;34;20358;-85
2022/01/02 07:06:41;;;;;;;10.32;6.15;;;5.00;85.60;;;3.77;81.30;97078.28;3929086;34;20328;-85
2022/01/02 07:09:29;;;;;;;8.60;6.00;;;5.00;85.60;;;3.78;81.14;97079.94;3946086;35;20333;-85
2022/01/02 07:12:14;;;;;;;9.82;6.57;;;5.00;85.60;;;3.79;81.19;97080.81;3929001;35;20034;-85
2022/01/02 07:14:59;;;;;;;9.32;6.28;;;5.10;85.60;;;3.81;81.44;97078.69;3943177;35;20016;-84
2022/01/02 07:17:44;;;;;;;9.32;5.78;;;5.10;85.60;;;3.80;81.16;97077.06;3963522;35;20013;-85
2022/01/02 07:20:29;;;;;;;8.85;6.00;;;5.10;85.60;;;3.80;81.20;97080.59;3964625;35;20122;-85
2022/01/02 07:23:14;;;;;;;8.32;6.28;;;5.10;85.50;;;3.80;81.14;97077.06;3946161;34;19998;-85
2022/01/02 07:25:59;;;;;;;8.27;6.20;;;5.10;85.60;;;3.80;80.97;97074.34;3963242;34;20362;-85
2022/01/02 07:28:44;;;;;;;8.57;6.15;;;5.10;85.70;;;3.79;81.05;97081.63;3931668;34;20610;-85
2022/01/02 07:31:29;;;;;;;8.77;6.45;;;5.10;85.60;;;3.82;81.13;97080.38;3973557;34;20280;-85
2022/01/02 07:34:14;;;;;;;10.35;6.60;;;5.10;85.60;;;3.82;81.31;97081.22;3972655;34;20781;-86
2022/01/02 07:36:59;;;;;;;10.57;7.25;;;5.10;85.60;;;3.82;81.16;97089.34;3973806;34;20354;-84
2022/01/02 07:39:43;;;;;;;9.65;6.38;;;5.10;85.60;;;3.83;81.32;97079.34;3973905;34;20214;-85
2022/01/02 07:42:28;;;;;;;11.50;6.82;;;5.10;85.60;;;3.83;81.37;97088.31;3991681;34;20329;-86
2022/01/02 07:45:19;;;;;;;10.27;6.93;;;5.10;85.70;;;3.84;81.20;97089.13;3975114;34;20288;-85
2022/01/02 07:48:04;;;;;;;10.82;6.78;;;5.10;85.80;;;3.84;81.68;97083.72;3973778;34;20351;-85
2022/01/02 07:50:50;;;;;;;9.13;7.22;;;5.10;86.00;;;3.84;81.29;97081.84;3965940;35;20421;-85
2022/01/02 07:53:35;;;;;;;9.18;6.55;;;5.10;85.90;;;3.84;81.71;97084.56;3964505;35;20332;-85
2022/01/02 07:56:20;;;;;;;10.77;7.18;;;5.10;85.90;;;3.84;81.33;97089.13;3946348;35;20070;-86
2022/01/02 07:59:05;;;;;;;9.50;5.65;;;5.10;85.70;;;3.84;81.42;97079.16;3963861;35;20608;-86
2022/01/02 08:01:50;;;;;;;9.52;6.10;;;5.10;85.70;;;3.85;81.37;97074.53;3964899;35;20704;-85
2022/01/02 08:04:35;;;;;;;11.05;6.45;;;5.10;86.40;;;3.86;81.14;97076.22;3964346;35;20018;-85
2022/01/02 08:07:19;;;;;;;10.65;7.10;;;5.10;85.60;;;3.85;81.32;97074.53;3964548;35;20325;-86
2022/01/02 08:10:05;;;;;;;8.05;6.07;;;5.10;85.70;;;3.88;81.41;97074.16;3970152;34;20436;-85
2022/01/02 08:12:49;;;;;;;8.93;6.40;;;5.20;85.60;;;3.89;81.08;97074.97;3974327;34;20059;-85
2022/01/02 08:15:34;;;;;;;8.98;6.43;;;5.10;85.50;;;3.89;81.37;97070.41;3991837;34;20009;-84
2022/01/02 08:18:20;;;;;;;9.98;6.88;;;5.20;85.50;;;3.91;80.95;97073.72;3974560;34;20328;-85
2022/01/02 08:21:04;;;;;;;10.23;6.40;;;5.20;85.60;;;3.95;81.34;97080.38;4011190;34;20013;-85
2022/01/02 08:23:49;;;;;;;9.98;6.20;;;5.20;85.70;;;4.01;81.50;97084.16;3958750;35;20062;-85
2022/01/02 08:26:34;;;;;;;10.70;6.55;;;5.20;85.70;;;4.07;81.69;97091.47;3969072;35;20225;-85
2022/01/02 08:29:19;;;;;;;8.70;6.85;;;5.30;86.00;;;4.09;81.37;97085.81;3949663;35;20005;-86
2022/01/02 08:32:04;;;;;;;9.63;6.80;;;5.30;86.00;;;4.09;81.30;97080.41;3935166;35;20359;-85
2022/01/02 08:34:49;;;;;;;9.57;6.70;;;5.30;85.60;;;4.09;80.95;97075.84;3914741;35;20336;-86
2022/01/02 08:37:34;;;;;;;9.63;6.30;;;5.30;85.30;;;4.10;80.58;97071.22;3914560;35;20322;-85
2022/01/02 08:40:19;;;;;;;9.38;5.72;;;5.30;85.20;;;4.09;80.67;97073.13;3919550;35;20349;-86
2022/01/02 08:43:04;;;;;;;10.00;6.78;;;5.40;85.20;;;4.14;81.20;97064.38;3944266;35;20330;-85
2022/01/02 08:45:49;;;;;;;9.30;6.63;;;5.40;85.30;;;4.20;80.51;97063.53;3944274;35;19998;-85
2022/01/02 08:48:34;;;;;;;9.90;7.50;;;5.40;85.30;;;4.27;80.62;97067.06;3942893;35;20369;-85
2022/01/02 08:51:19;;;;;;;10.02;6.95;;;5.50;85.50;;;4.35;80.75;97062.47;3956568;35;20052;-86
2022/01/02 08:54:05;;;;;;;9.52;6.53;;;5.50;85.30;;;4.43;80.95;97067.69;3960195;35;20086;-85
2022/01/02 08:56:50;;;;;;;10.20;6.53;;;5.60;85.40;;;4.49;80.93;97058.72;3979809;35;20017;-85
2022/01/02 08:59:35;;;;;;;10.38;6.22;;;5.70;85.40;;;4.55;80.65;97052.47;3977174;34;20009;-86
2022/01/02 09:02:20;;;;;;;8.65;6.05;;;5.80;85.10;;;4.60;80.57;97063.50;3945835;35;20328;-85
2022/01/02 09:05:06;;;;;;;9.27;6.30;;;5.80;84.90;;;4.65;80.50;97057.44;3965361;34;20057;-84
2022/01/02 09:07:51;;;;;;;8.43;5.82;;;5.80;84.90;;;4.69;80.13;97063.28;3984727;34;20074;-85
2022/01/02 09:10:36;;;;;;;9.05;6.30;;;5.90;84.60;;;4.72;80.30;97069.13;3964932;34;20040;-85
2022/01/02 09:13:23;;;;;;;9.15;6.78;;;5.90;84.80;;;4.76;80.21;97064.94;3964633;34;20068;-85
2022/01/02 09:16:08;;;;;;;8.52;5.68;;;6.00;85.00;;;4.78;80.50;97067.44;3945016;35;20294;-86
2022/01/02 09:18:52;;;;;;;9.18;6.20;;;6.00;85.20;;;4.79;80.69;97063.69;3905474;35;20352;-85
2022/01/02 09:21:38;;;;;;;8.27;6.00;;;6.00;85.00;;;4.81;80.50;97055.31;3906605;35;20306;-86
2022/01/02 09:24:22;;;;;;;9.18;5.68;;;6.00;84.80;;;4.82;80.60;97057.84;3905841;34;20020;-85
2022/01/02 09:27:07;;;;;;;8.80;5.35;;;6.00;85.00;;;4.84;80.56;97060.31;3906443;35;20246;-85
2022/01/02 09:29:52;;;;;;;8.75;5.43;;;6.10;85.10;;;4.85;80.46;97053.84;3941273;35;20317;-85
2022/01/02 09:32:37;;;;;;;7.90;5.55;;;6.10;85.10;;;4.84;80.79;97039.44;3958908;35;20406;-85
2022/01/02 09:35:21;;;;;;;10.27;5.93;;;6.10;84.90;;;4.85;80.86;97043.81;3963383;35;20403;-85
2022/01/02 09:38:09;;;;;;;8.15;5.55;;;6.10;85.00;;;4.85;80.81;97051.97;3930001;35;20372;-85
2022/01/02 09:40:54;;;;;;;9.20;6.05;;;6.10;84.90;;;4.86;80.92;97050.91;3934084;34;20013;-85
2022/01/02 09:43:39;;;;;;;8.40;6.13;;;6.10;84.90;;;4.86;80.30;97042.78;3955227;34;20085;-85
2022/01/02 09:46:26;;;;;;;6.97;5.40;;;6.10;84.90;;;4.87;80.74;97044.44;3990516;34;20327;-85
2022/01/02 09:49:11;;;;;;;7.53;5.32;;;6.20;85.10;;;4.87;80.76;97039.03;3990434;34;20013;-85
2022/01/02 09:51:56;;;;;;;9.50;5.50;;;6.20;85.10;;;4.86;80.58;97041.97;3955009;34;20008;-85
2022/01/02 09:54:41;;;;;;;9.55;5.78;;;6.10;84.80;;;4.81;80.26;97037.16;3953700;34;20029;-85
2022/01/02 09:57:08;;;;;;;8.02;5.47;;;6.10;84.60;;;4.78;80.22;97034.88;3960533;34;20358;-85
2022/01/02 09:59:34;;;;;;;8.20;5.22;;;6.10;84.40;;;4.79;80.23;97041.97;3961481;34;20302;-85
2022/01/02 10:02:01;;;;;;;7.25;5.10;;;6.10;84.60;;;4.79;80.55;97036.53;3964673;34;20034;-84
2022/01/02 10:04:40;;;;;;;7.90;5.80;;;6.10;85.10;;;4.80;80.69;97032.78;3899232;35;20382;-85
2022/01/02 10:07:29;;;;;;;7.65;5.15;;;6.00;85.00;;;4.82;80.69;97030.72;3961575;35;20437;-85
2022/01/02 10:09:56;;;;;;;7.25;4.78;;;6.10;85.10;;;4.82;80.59;97025.28;3921901;35;20317;-85
2022/01/02 10:12:30;;;;;;;7.70;5.32;;;6.10;85.00;;;4.84;80.59;97027.75;3963973;34;20314;-85
2022/01/02 10:15:22;;;;;;;5.90;4.43;;;6.10;84.90;;;4.84;80.54;97028.59;3983130;35;20022;-84
2022/01/02 10:18:24;;;;;;;6.95;4.57;;;6.10;84.90;;;4.82;80.38;97013.56;3964317;35;20126;-86
2022/01/02 10:20:50;;;;;;;6.78;4.32;;;6.10;84.30;;;4.81;80.37;97020.91;3963416;34;20456;-85
2022/01/02 10:23:24;;;;;;;5.97;4.03;;;6.10;84.40;;;4.79;80.33;97020.28;3922618;35;20315;-85
2022/01/02 10:26:00;;;;;;;7.68;4.78;;;6.10;84.10;;;4.77;79.67;97008.78;3983120;34;20025;-84
2022/01/02 10:28:42;;;;;;;7.07;4.25;;;6.10;84.30;;;4.75;80.05;97005.47;3962947;35;20364;-84
2022/01/02 10:31:15;;;;;;;7.72;4.60;;;6.00;84.10;;;4.72;80.47;97004.00;3963139;35;20309;-85
2022/01/02 10:33:57;;;;;;;6.88;4.38;;;6.00;84.50;;;4.69;80.38;96996.31;3921989;35;20014;-86
2022/01/02 10:36:33;;;;;;;7.55;4.40;;;6.00;84.70;;;4.67;80.65;96989.44;3939768;35;20325;-85
2022/01/02 10:39:18;;;;;;;5.37;3.60;;;6.00;84.80;;;4.68;80.72;96982.97;3963057;35;20001;-85
2022/01/02 10:41:51;;;;;;;6.97;4.07;;;6.00;84.80;;;4.68;80.30;96982.97;3942240;35;20304;-85
2022/01/02 10:44:30;;;;;;;6.78;4.50;;;6.00;84.40;;;4.67;80.06;96973.97;3919784;35;20335;-84
2022/01/02 10:47:26;;;;;;;6.22;4.43;;;6.00;84.40;;;4.66;80.39;96976.91;3940366;35;20322;-85
2022/01/02 10:50:04;;;;;;;6.20;3.85;;;6.00;84.70;;;4.64;80.78;96973.56;3959922;35;20071;-85
2022/01/02 10:52:39;;;;;;;6.43;3.60;;;5.90;85.00;;;4.64;80.66;96979.84;3960162;35;20300;-85
2022/01/02 10:55:18;;;;;;;6.22;3.78;;;5.90;85.00;;;4.61;80.58;96981.09;3959873;35;20301;-86
2022/01/02 10:57:49;;;;;;;7.18;3.88;;;5.90;85.00;;;4.59;80.83;96983.19;3961123;35;20014;-85
2022/01/02 11:00:20;;;;;;;6.07;3.95;;;5.90;85.10;;;4.58;80.72;96981.50;3941978;35;20644;-86
2022/01/02 11:02:47;;;;;;;6.35;3.88;;;5.90;85.10;;;4.57;81.39;96979.03;3964218;34;20025;-85
2022/01/02 11:05:18;;;;;;;5.63;3.33;;;5.90;85.40;;;4.56;80.99;96969.22;3945846;34;20317;-84
2022/01/02 11:07:47;;;;;;;6.75;3.88;;;5.80;85.40;;;4.55;81.53;96971.13;3947120;34;20002;-84
2022/01/02 11:10:19;;;;;;;5.40;3.60;;;5.80;85.40;;;4.55;81.48;96954.84;3926675;34;20358;-85
2022/01/02 11:12:48;;;;;;;6.20;4.33;;;5.80;85.30;;;4.55;80.93;96954.84;3948446;34;20201;-85
2022/01/02 11:15:18;;;;;;;5.93;4.40;;;5.80;85.40;;;4.55;81.32;96938.56;3965799;34;20013;-85
2022/01/02 11:17:47;;;;;;;5.63;3.78;;;5.80;85.60;;;4.55;81.09;96946.72;3983782;35;20314;-85
2022/01/02 11:20:21;;;;;;;5.03;3.38;;;5.80;85.30;;;4.55;81.04;96944.00;3964162;35;20254;-85
2022/01/02 11:23:17;;;;;;;6.10;3.63;;;5.80;85.40;;;4.56;81.29;96945.66;3963428;34;20351;-85
2022/01/02 11:26:15;;;;;;;5.28;3.88;;;5.80;85.50;;;4.55;81.48;96938.56;3979191;35;20014;-85
2022/01/02 11:28:51;;;;;;;6.50;3.80;;;5.80;85.70;;;4.55;81.21;96941.28;3922476;35;20365;-85
2022/01/02 11:31:39;;;;;;;5.35;3.45;;;5.80;85.50;;;4.55;81.15;96935.00;3917916;35;20082;-85
2022/01/02 11:34:44;;;;;;;5.65;3.90;;;5.80;85.40;;;4.56;81.41;96933.97;3963091;35;20545;-85
2022/01/02 11:37:50;;;;;;;6.32;4.38;;;5.80;86.20;;;4.56;80.97;96944.81;3881649;35;20376;-85
2022/01/02 11:40:17;;;;;;;6.25;4.10;;;5.80;85.50;;;4.52;80.99;96933.56;3938429;35;20658;-85
2022/01/02 11:42:44;;;;;;;4.38;3.15;;;5.80;85.30;;;4.51;81.22;96937.31;3897322;35;19994;-84
2022/01/02 11:45:31;;;;;;;5.88;3.72;;;5.80;85.60;;;4.51;81.03;96940.03;3917525;34;20324;-85
2022/01/02 11:47:57;;;;;;;4.72;3.42;;;5.80;85.60;;;4.49;81.59;96939.41;4009020;34;20321;-86
2022/01/02 11:50:34;;;;;;;5.30;3.50;;;5.80;85.60;;;4.49;81.41;96936.69;4005463;34;20257;-85
2022/01/02 11:53:10;;;;;;;7.78;3.65;;;5.80;85.70;;;4.48;81.54;96937.75;3981570;34;20375;-85
2022/01/02 11:55:36;;;;;;;5.28;3.85;;;5.80;85.80;;;4.45;81.35;96921.94;4004828;34;20296;-85
2022/01/02 11:58:02;;;;;;;5.40;3.42;;;5.70;85.60;;;4.45;81.88;96927.34;3922071;34;20013;-85
2022/01/02 12:00:35;;;;;;;5.53;3.63;;;5.70;86.00;;;4.42;81.29;96920.47;3984857;34;20421;-85